Etusivu
METAR-TAF:

METAR-TAF

Lentoasemat :

Sotilaslentoasema

Landivisiau, Ranska

Leveyspiiri: 48-31N, Pituuspiiri: 004-09W, korkeus merenpinnasta: 106 m

Tämänhetkinen sää

Tämä raportti tehtiin 17 minuuttia sitten, kello 04.00 UTC
Tuuli 6 kn idästä/koillisesta
Lämpötila 1°C
Kosteus 93%
Ilmanpaine 1038 hPa
Näkyvyys 10 km tai enemmän
Muutamia pilviä 2900 ft:n korkeudessa

METAR: LFRJ 190400Z AUTO 06006KT 9999 FEW029 01/M00 Q1038

Aika: 05:17 (04:17 UTC)


TAF: puuttuu

Säähavainnot ja -ennusteet yli 4000 lentoasemalta (METAR- ja TAF-raportit).

Käytössä olevat sääasemat on merkitty karttaan keltaisilla ja punaisilla pisteillä.

Aseta hiiri pisteen päälle nähdäksesi sääaseman nimen.

Klikkaa sitten nähdäksesi säähavainnot ja -ennusteet.

Kartan vaihtaminen: klikkaa mustalla rastilla varustettuja vihreitä pisteitä, niin voit zoomata sisään; viivalla varustettua vihreää pistettä, niin voit zoomata ulos tai vihreitä nuolia, niin pääset viereisille kartoille.


METAR-TAF: